sensor_id;sensor_type;location;lat;lon;timestamp;pressure;altitude;pressure_sealevel;temperature;humidity
51067;BME280;37112;45.892;-123.962;2024-03-23T00:53:08;100408.86;;;15.58;68.37
51067;BME280;37112;45.892;-123.962;2024-03-23T00:55:18;100404.20;;;15.58;68.00
51067;BME280;37112;45.892;-123.962;2024-03-23T00:57:28;100401.27;;;15.58;67.94
51067;BME280;37112;45.892;-123.962;2024-03-23T00:59:38;100394.64;;;15.59;67.87
51067;BME280;37112;45.892;-123.962;2024-03-23T01:01:48;100388.48;;;15.59;67.33
51067;BME280;37112;45.892;-123.962;2024-03-23T01:03:58;100388.77;;;15.58;67.37
51067;BME280;37112;45.892;-123.962;2024-03-23T01:06:09;100387.72;;;15.58;67.32
51067;BME280;37112;45.892;-123.962;2024-03-23T01:08:18;100379.94;;;15.53;66.07
51067;BME280;37112;45.892;-123.962;2024-03-23T01:10:29;100380.31;;;15.47;66.32
51067;BME280;37112;45.892;-123.962;2024-03-23T01:12:39;100374.64;;;15.45;66.67
51067;BME280;37112;45.892;-123.962;2024-03-23T01:14:49;100363.77;;;15.41;65.60
51067;BME280;37112;45.892;-123.962;2024-03-23T01:16:59;100368.00;;;15.40;66.58
51067;BME280;37112;45.892;-123.962;2024-03-23T01:19:09;100370.46;;;15.40;66.87
51067;BME280;37112;45.892;-123.962;2024-03-23T01:21:19;100376.29;;;15.37;66.52
51067;BME280;37112;45.892;-123.962;2024-03-23T01:23:29;100384.34;;;15.35;66.43
51067;BME280;37112;45.892;-123.962;2024-03-23T01:25:40;100376.40;;;15.31;66.55
51067;BME280;37112;45.892;-123.962;2024-03-23T01:27:49;100374.89;;;15.29;66.41
51067;BME280;37112;45.892;-123.962;2024-03-23T01:29:59;100377.66;;;15.26;66.55
51067;BME280;37112;45.892;-123.962;2024-03-23T01:32:10;100369.17;;;15.23;66.63
51067;BME280;37112;45.892;-123.962;2024-03-23T01:34:20;100369.55;;;15.23;67.01
51067;BME280;37112;45.892;-123.962;2024-03-23T01:36:30;100367.41;;;15.24;67.11
51067;BME280;37112;45.892;-123.962;2024-03-23T01:38:40;100370.49;;;15.26;67.00
51067;BME280;37112;45.892;-123.962;2024-03-23T01:40:50;100364.21;;;15.28;67.25
51067;BME280;37112;45.892;-123.962;2024-03-23T01:43:06;100367.30;;;15.29;67.02
51067;BME280;37112;45.892;-123.962;2024-03-23T01:45:17;100359.61;;;15.22;65.42
51067;BME280;37112;45.892;-123.962;2024-03-23T01:47:27;100360.23;;;15.13;65.40
51067;BME280;37112;45.892;-123.962;2024-03-23T01:49:37;100355.71;;;15.06;65.93
51067;BME280;37112;45.892;-123.962;2024-03-23T01:51:47;100352.41;;;15.01;66.20
51067;BME280;37112;45.892;-123.962;2024-03-23T01:53:58;100355.09;;;14.97;66.54
51067;BME280;37112;45.892;-123.962;2024-03-23T01:56:09;100355.16;;;14.92;66.81
51067;BME280;37112;45.892;-123.962;2024-03-23T01:58:19;100356.66;;;14.88;67.00
51067;BME280;37112;45.892;-123.962;2024-03-23T02:00:29;100353.70;;;14.83;67.25
51067;BME280;37112;45.892;-123.962;2024-03-23T02:02:43;100353.00;;;14.79;67.52
51067;BME280;37112;45.892;-123.962;2024-03-23T02:04:54;100353.23;;;14.74;67.79
51067;BME280;37112;45.892;-123.962;2024-03-23T02:07:04;100349.27;;;14.69;67.91
51067;BME280;37112;45.892;-123.962;2024-03-23T02:09:16;100352.73;;;14.64;68.19
51067;BME280;37112;45.892;-123.962;2024-03-23T02:11:26;100349.65;;;14.59;68.33
51067;BME280;37112;45.892;-123.962;2024-03-23T02:13:36;100351.35;;;14.54;68.46
51067;BME280;37112;45.892;-123.962;2024-03-23T02:15:47;100350.98;;;14.50;68.74
51067;BME280;37112;45.892;-123.962;2024-03-23T02:17:57;100344.98;;;14.47;69.08
51067;BME280;37112;45.892;-123.962;2024-03-23T02:20:08;100342.73;;;14.44;69.16
51067;BME280;37112;45.892;-123.962;2024-03-23T02:22:18;100342.12;;;14.41;69.31
51067;BME280;37112;45.892;-123.962;2024-03-23T02:24:31;100347.56;;;14.38;69.59
51067;BME280;37112;45.892;-123.962;2024-03-23T02:26:42;100351.02;;;14.34;69.75
51067;BME280;37112;45.892;-123.962;2024-03-23T02:28:52;100349.86;;;14.22;69.91
51067;BME280;37112;45.892;-123.962;2024-03-23T02:31:02;100351.92;;;14.15;70.16
51067;BME280;37112;45.892;-123.962;2024-03-23T02:33:13;100355.96;;;14.10;70.61
51067;BME280;37112;45.892;-123.962;2024-03-23T02:35:23;100348.18;;;14.07;70.95
51067;BME280;37112;45.892;-123.962;2024-03-23T02:37:33;100345.71;;;14.03;71.19
51067;BME280;37112;45.892;-123.962;2024-03-23T02:39:43;100346.97;;;13.98;71.40
51067;BME280;37112;45.892;-123.962;2024-03-23T02:41:53;100342.39;;;13.92;71.62
51067;BME280;37112;45.892;-123.962;2024-03-23T02:44:03;100337.23;;;13.85;71.86
51067;BME280;37112;45.892;-123.962;2024-03-23T02:46:13;100337.85;;;13.80;72.16
51067;BME280;37112;45.892;-123.962;2024-03-23T02:48:23;100334.89;;;13.77;72.43
51067;BME280;37112;45.892;-123.962;2024-03-23T02:50:34;100332.38;;;13.76;72.57
51067;BME280;37112;45.892;-123.962;2024-03-23T02:52:44;100335.42;;;13.74;72.72
51067;BME280;37112;45.892;-123.962;2024-03-23T02:54:55;100336.52;;;13.71;72.96
51067;BME280;37112;45.892;-123.962;2024-03-23T02:57:05;100339.20;;;13.69;73.14
51067;BME280;37112;45.892;-123.962;2024-03-23T02:59:15;100340.99;;;13.62;73.44
51067;BME280;37112;45.892;-123.962;2024-03-23T03:01:26;100344.60;;;13.54;73.95
51067;BME280;37112;45.892;-123.962;2024-03-23T03:03:36;100341.98;;;13.45;73.83
51067;BME280;37112;45.892;-123.962;2024-03-23T03:05:46;100344.07;;;13.37;74.12
51067;BME280;37112;45.892;-123.962;2024-03-23T03:07:56;100345.46;;;13.31;74.42
51067;BME280;37112;45.892;-123.962;2024-03-23T03:10:08;100344.31;;;13.24;74.85
51067;BME280;37112;45.892;-123.962;2024-03-23T03:12:17;100348.86;;;13.18;75.34
51067;BME280;37112;45.892;-123.962;2024-03-23T03:14:27;100355.23;;;13.10;75.90
51067;BME280;37112;45.892;-123.962;2024-03-23T03:16:38;100354.23;;;13.01;76.13
51067;BME280;37112;45.892;-123.962;2024-03-23T03:18:47;100350.73;;;12.92;76.74
51067;BME280;37112;45.892;-123.962;2024-03-23T03:20:58;100347.80;;;12.82;76.51
51067;BME280;37112;45.892;-123.962;2024-03-23T03:23:12;100351.87;;;12.74;76.62
51067;BME280;37112;45.892;-123.962;2024-03-23T03:25:22;100356.92;;;12.66;76.76
51067;BME280;37112;45.892;-123.962;2024-03-23T03:27:32;100370.17;;;12.59;77.18
51067;BME280;37112;45.892;-123.962;2024-03-23T03:29:42;100378.36;;;12.48;77.50
51067;BME280;37112;45.892;-123.962;2024-03-23T03:31:52;100389.48;;;12.36;78.06
51067;BME280;37112;45.892;-123.962;2024-03-23T03:34:02;100391.02;;;12.23;78.80
51067;BME280;37112;45.892;-123.962;2024-03-23T03:36:13;100402.10;;;12.14;79.34
51067;BME280;37112;45.892;-123.962;2024-03-23T03:38:23;100398.36;;;12.05;80.12
51067;BME280;37112;45.892;-123.962;2024-03-23T03:40:33;100405.52;;;11.95;80.42
51067;BME280;37112;45.892;-123.962;2024-03-23T03:42:43;100400.84;;;11.82;80.00
51067;BME280;37112;45.892;-123.962;2024-03-23T03:44:54;100399.61;;;11.70;80.34
51067;BME280;37112;45.892;-123.962;2024-03-23T03:47:04;100405.80;;;11.59;80.22
51067;BME280;37112;45.892;-123.962;2024-03-23T03:49:14;100409.58;;;11.52;80.36
51067;BME280;37112;45.892;-123.962;2024-03-23T03:51:28;100412.45;;;11.44;80.39
51067;BME280;37112;45.892;-123.962;2024-03-23T03:53:38;100413.50;;;11.37;80.69
51067;BME280;37112;45.892;-123.962;2024-03-23T03:55:48;100411.48;;;11.29;80.95
51067;BME280;37112;45.892;-123.962;2024-03-23T03:57:59;100417.50;;;11.18;80.71
51067;BME280;37112;45.892;-123.962;2024-03-23T04:00:10;100419.44;;;11.08;80.81
51067;BME280;37112;45.892;-123.962;2024-03-23T04:02:21;100416.02;;;11.02;81.15
51067;BME280;37112;45.892;-123.962;2024-03-23T04:04:31;100413.08;;;10.93;81.08
51067;BME280;37112;45.892;-123.962;2024-03-23T04:06:41;100408.04;;;10.87;81.38
51067;BME280;37112;45.892;-123.962;2024-03-23T04:08:52;100399.18;;;10.80;81.15
51067;BME280;37112;45.892;-123.962;2024-03-23T04:11:02;100393.27;;;10.73;81.12
51067;BME280;37112;45.892;-123.962;2024-03-23T04:13:12;100402.30;;;10.69;81.03
51067;BME280;37112;45.892;-123.962;2024-03-23T04:15:23;100404.60;;;10.61;81.06
51067;BME280;37112;45.892;-123.962;2024-03-23T04:17:33;100400.45;;;10.57;81.05
51067;BME280;37112;45.892;-123.962;2024-03-23T04:19:43;100392.41;;;10.53;81.06
51067;BME280;37112;45.892;-123.962;2024-03-23T04:21:54;100392.70;;;10.47;81.09
51067;BME280;37112;45.892;-123.962;2024-03-23T04:24:04;100394.25;;;10.43;81.34
51067;BME280;37112;45.892;-123.962;2024-03-23T04:26:14;100391.20;;;10.41;81.65
51067;BME280;37112;45.892;-123.962;2024-03-23T04:28:25;100384.64;;;10.38;81.80
51067;BME280;37112;45.892;-123.962;2024-03-23T04:30:35;100374.61;;;10.37;82.07
51067;BME280;37112;45.892;-123.962;2024-03-23T04:32:45;100374.14;;;10.36;82.35
51067;BME280;37112;45.892;-123.962;2024-03-23T04:34:56;100371.85;;;10.36;82.39
51067;BME280;37112;45.892;-123.962;2024-03-23T04:37:07;100361.42;;;10.35;82.34
51067;BME280;37112;45.892;-123.962;2024-03-23T04:39:17;100355.02;;;10.33;82.31
51067;BME280;37112;45.892;-123.962;2024-03-23T04:41:27;100354.27;;;10.31;82.23
51067;BME280;37112;45.892;-123.962;2024-03-23T04:43:38;100351.38;;;10.29;82.38
51067;BME280;37112;45.892;-123.962;2024-03-23T04:45:48;100350.48;;;10.26;82.34
51067;BME280;37112;45.892;-123.962;2024-03-23T04:47:58;100350.76;;;10.23;82.32
51067;BME280;37112;45.892;-123.962;2024-03-23T04:50:09;100349.25;;;10.19;82.34
51067;BME280;37112;45.892;-123.962;2024-03-23T04:52:20;100347.67;;;10.11;82.05
51067;BME280;37112;45.892;-123.962;2024-03-23T04:54:30;100342.66;;;10.07;82.30
51067;BME280;37112;45.892;-123.962;2024-03-23T04:56:41;100337.37;;;10.04;82.42
51067;BME280;37112;45.892;-123.962;2024-03-23T04:58:51;100330.87;;;10.00;82.56
51067;BME280;37112;45.892;-123.962;2024-03-23T05:01:01;100328.33;;;9.96;82.49
51067;BME280;37112;45.892;-123.962;2024-03-23T05:03:11;100325.30;;;9.92;82.58
51067;BME280;37112;45.892;-123.962;2024-03-23T05:05:22;100322.92;;;9.88;82.53
51067;BME280;37112;45.892;-123.962;2024-03-23T05:07:32;100319.06;;;9.82;82.54
51067;BME280;37112;45.892;-123.962;2024-03-23T05:09:41;100319.13;;;9.76;82.53
51067;BME280;37112;45.892;-123.962;2024-03-23T05:11:52;100324.37;;;9.72;82.75
51067;BME280;37112;45.892;-123.962;2024-03-23T05:14:02;100322.45;;;9.67;82.91
51067;BME280;37112;45.892;-123.962;2024-03-23T05:16:12;100323.95;;;9.63;82.94
51067;BME280;37112;45.892;-123.962;2024-03-23T05:18:23;100323.42;;;9.58;82.86
51067;BME280;37112;45.892;-123.962;2024-03-23T05:20:34;100323.06;;;9.53;83.19
51067;BME280;37112;45.892;-123.962;2024-03-23T05:22:44;100319.70;;;9.48;83.20
51067;BME280;37112;45.892;-123.962;2024-03-23T05:24:55;100321.51;;;9.42;83.36
51067;BME280;37112;45.892;-123.962;2024-03-23T05:27:06;100311.67;;;9.36;83.38
51067;BME280;37112;45.892;-123.962;2024-03-23T05:29:15;100307.23;;;9.31;83.56
51067;BME280;37112;45.892;-123.962;2024-03-23T05:31:29;100297.66;;;9.26;83.61
51067;BME280;37112;45.892;-123.962;2024-03-23T05:33:39;100297.23;;;9.19;83.49
51067;BME280;37112;45.892;-123.962;2024-03-23T05:35:58;100296.91;;;9.13;83.77
51067;BME280;37112;45.892;-123.962;2024-03-23T05:38:08;100293.00;;;9.06;83.87
51067;BME280;37112;45.892;-123.962;2024-03-23T05:40:18;100290.48;;;9.01;83.99
51067;BME280;37112;45.892;-123.962;2024-03-23T05:42:28;100288.70;;;8.96;84.08
51067;BME280;37112;45.892;-123.962;2024-03-23T05:44:38;100287.93;;;8.92;84.22
51067;BME280;37112;45.892;-123.962;2024-03-23T05:46:48;100287.36;;;8.87;84.31
51067;BME280;37112;45.892;-123.962;2024-03-23T05:49:03;100288.05;;;8.82;84.50
51067;BME280;37112;45.892;-123.962;2024-03-23T05:51:12;100285.56;;;8.77;84.60
51067;BME280;37112;45.892;-123.962;2024-03-23T05:53:22;100275.52;;;8.71;84.61
51067;BME280;37112;45.892;-123.962;2024-03-23T05:55:33;100273.38;;;8.66;84.77
51067;BME280;37112;45.892;-123.962;2024-03-23T05:57:43;100265.47;;;8.62;84.89
51067;BME280;37112;45.892;-123.962;2024-03-23T05:59:53;100260.59;;;8.58;84.95
51067;BME280;37112;45.892;-123.962;2024-03-23T06:02:03;100254.90;;;8.56;85.09
51067;BME280;37112;45.892;-123.962;2024-03-23T06:04:13;100254.75;;;8.53;85.11
51067;BME280;37112;45.892;-123.962;2024-03-23T06:06:24;100252.10;;;8.51;85.13
51067;BME280;37112;45.892;-123.962;2024-03-23T06:08:34;100250.70;;;8.48;85.07
51067;BME280;37112;45.892;-123.962;2024-03-23T06:10:44;100251.55;;;8.46;85.24
51067;BME280;37112;45.892;-123.962;2024-03-23T06:12:54;100251.89;;;8.43;85.34
51067;BME280;37112;45.892;-123.962;2024-03-23T06:15:05;100254.87;;;8.41;85.37
51067;BME280;37112;45.892;-123.962;2024-03-23T06:17:21;100255.62;;;8.37;85.53
51067;BME280;37112;45.892;-123.962;2024-03-23T06:19:31;100259.55;;;8.34;85.55
51067;BME280;37112;45.892;-123.962;2024-03-23T06:21:44;100253.50;;;8.29;85.62
51067;BME280;37112;45.892;-123.962;2024-03-23T06:23:55;100253.02;;;8.23;85.71
51067;BME280;37112;45.892;-123.962;2024-03-23T06:26:05;100252.59;;;8.19;85.75
51067;BME280;37112;45.892;-123.962;2024-03-23T06:28:14;100251.41;;;8.15;85.84
51067;BME280;37112;45.892;-123.962;2024-03-23T06:30:24;100247.26;;;8.11;85.94
51067;BME280;37112;45.892;-123.962;2024-03-23T06:32:35;100246.84;;;8.08;86.18
51067;BME280;37112;45.892;-123.962;2024-03-23T06:34:46;100243.04;;;8.07;86.39
51067;BME280;37112;45.892;-123.962;2024-03-23T06:36:56;100236.38;;;8.04;86.38
51067;BME280;37112;45.892;-123.962;2024-03-23T06:39:06;100234.57;;;8.01;86.56
51067;BME280;37112;45.892;-123.962;2024-03-23T06:41:20;100234.46;;;8.01;86.79
51067;BME280;37112;45.892;-123.962;2024-03-23T06:43:33;100228.83;;;7.98;86.87
51067;BME280;37112;45.892;-123.962;2024-03-23T06:45:44;100229.21;;;7.97;87.08
51067;BME280;37112;45.892;-123.962;2024-03-23T06:47:53;100226.08;;;7.96;87.22
51067;BME280;37112;45.892;-123.962;2024-03-23T06:50:04;100227.28;;;7.97;87.34
51067;BME280;37112;45.892;-123.962;2024-03-23T06:52:14;100227.15;;;7.96;87.41
51067;BME280;37112;45.892;-123.962;2024-03-23T06:54:26;100221.38;;;7.95;87.51
51067;BME280;37112;45.892;-123.962;2024-03-23T06:56:36;100218.09;;;7.95;87.57
51067;BME280;37112;45.892;-123.962;2024-03-23T06:58:46;100215.58;;;7.92;87.48
51067;BME280;37112;45.892;-123.962;2024-03-23T07:00:56;100211.67;;;7.90;87.54
51067;BME280;37112;45.892;-123.962;2024-03-23T07:03:06;100211.56;;;7.89;87.61
51067;BME280;37112;45.892;-123.962;2024-03-23T07:05:16;100206.38;;;7.87;87.55
51067;BME280;37112;45.892;-123.962;2024-03-23T07:07:27;100203.30;;;7.85;87.73
51067;BME280;37112;45.892;-123.962;2024-03-23T07:09:38;100201.29;;;7.83;87.71
51067;BME280;37112;45.892;-123.962;2024-03-23T07:11:48;100194.55;;;7.81;87.74
51067;BME280;37112;45.892;-123.962;2024-03-23T07:13:58;100185.27;;;7.80;88.09
51067;BME280;37112;45.892;-123.962;2024-03-23T07:16:08;100181.98;;;7.79;88.13
51067;BME280;37112;45.892;-123.962;2024-03-23T07:18:18;100175.82;;;7.78;88.11
51067;BME280;37112;45.892;-123.962;2024-03-23T07:20:28;100169.09;;;7.75;88.00
51067;BME280;37112;45.892;-123.962;2024-03-23T07:22:39;100170.94;;;7.74;88.16
51067;BME280;37112;45.892;-123.962;2024-03-23T07:24:49;100166.84;;;7.72;88.17
51067;BME280;37112;45.892;-123.962;2024-03-23T07:27:00;100165.23;;;7.69;88.18
51067;BME280;37112;45.892;-123.962;2024-03-23T07:29:10;100158.09;;;7.66;88.10
51067;BME280;37112;45.892;-123.962;2024-03-23T07:31:20;100157.47;;;7.61;88.27
51067;BME280;37112;45.892;-123.962;2024-03-23T07:33:31;100155.42;;;7.60;88.36
51067;BME280;37112;45.892;-123.962;2024-03-23T07:35:41;100147.79;;;7.58;88.33
51067;BME280;37112;45.892;-123.962;2024-03-23T07:37:51;100148.70;;;7.55;88.09
51067;BME280;37112;45.892;-123.962;2024-03-23T07:40:01;100148.14;;;7.52;88.31
51067;BME280;37112;45.892;-123.962;2024-03-23T07:42:11;100147.05;;;7.50;88.39
51067;BME280;37112;45.892;-123.962;2024-03-23T07:44:20;100143.33;;;7.48;88.50
51067;BME280;37112;45.892;-123.962;2024-03-23T07:46:30;100140.58;;;7.46;88.57
51067;BME280;37112;45.892;-123.962;2024-03-23T07:48:41;100138.71;;;7.45;88.74
51067;BME280;37112;45.892;-123.962;2024-03-23T07:51:01;100130.58;;;7.42;88.81
51067;BME280;37112;45.892;-123.962;2024-03-23T07:53:11;100131.70;;;7.42;89.22
51067;BME280;37112;45.892;-123.962;2024-03-23T07:55:21;100134.92;;;7.44;89.51
51067;BME280;37112;45.892;-123.962;2024-03-23T07:57:32;100132.68;;;7.46;89.84
51067;BME280;37112;45.892;-123.962;2024-03-23T07:59:42;100131.50;;;7.48;90.11
51067;BME280;37112;45.892;-123.962;2024-03-23T08:01:51;100127.91;;;7.49;90.17
51067;BME280;37112;45.892;-123.962;2024-03-23T08:04:02;100127.60;;;7.50;90.35
51067;BME280;37112;45.892;-123.962;2024-03-23T08:06:13;100122.23;;;7.49;90.43
51067;BME280;37112;45.892;-123.962;2024-03-23T08:08:25;100122.35;;;7.50;90.73
51067;BME280;37112;45.892;-123.962;2024-03-23T08:10:35;100119.29;;;7.51;90.67
51067;BME280;37112;45.892;-123.962;2024-03-23T08:12:45;100121.52;;;7.52;90.81
51067;BME280;37112;45.892;-123.962;2024-03-23T08:14:56;100119.59;;;7.51;90.78
51067;BME280;37112;45.892;-123.962;2024-03-23T08:17:05;100113.60;;;7.51;90.83
51067;BME280;37112;45.892;-123.962;2024-03-23T08:19:15;100106.16;;;7.51;91.15
51067;BME280;37112;45.892;-123.962;2024-03-23T08:21:25;100104.70;;;7.52;91.08
51067;BME280;37112;45.892;-123.962;2024-03-23T08:23:35;100098.50;;;7.52;91.06
51067;BME280;37112;45.892;-123.962;2024-03-23T08:25:46;100098.46;;;7.53;91.22
51067;BME280;37112;45.892;-123.962;2024-03-23T08:27:56;100096.30;;;7.53;91.41
51067;BME280;37112;45.892;-123.962;2024-03-23T08:30:08;100101.33;;;7.55;91.58
51067;BME280;37112;45.892;-123.962;2024-03-23T08:32:17;100096.48;;;7.57;91.75
51067;BME280;37112;45.892;-123.962;2024-03-23T08:34:28;100099.27;;;7.57;91.69
51067;BME280;37112;45.892;-123.962;2024-03-23T08:36:38;100095.26;;;7.59;91.87
51067;BME280;37112;45.892;-123.962;2024-03-23T08:38:48;100097.27;;;7.61;92.13
51067;BME280;37112;45.892;-123.962;2024-03-23T08:41:02;100097.33;;;7.63;92.19
51067;BME280;37112;45.892;-123.962;2024-03-23T08:43:12;100094.86;;;7.65;92.30
51067;BME280;37112;45.892;-123.962;2024-03-23T08:45:22;100088.81;;;7.66;92.44
51067;BME280;37112;45.892;-123.962;2024-03-23T08:47:36;100080.13;;;7.66;92.35
51067;BME280;37112;45.892;-123.962;2024-03-23T08:49:46;100073.53;;;7.65;92.10
51067;BME280;37112;45.892;-123.962;2024-03-23T08:51:56;100074.86;;;7.60;91.88
51067;BME280;37112;45.892;-123.962;2024-03-23T08:54:06;100070.22;;;7.53;91.36
51067;BME280;37112;45.892;-123.962;2024-03-23T08:56:17;100068.81;;;7.47;91.45
51067;BME280;37112;45.892;-123.962;2024-03-23T08:58:28;100067.75;;;7.44;91.59
51067;BME280;37112;45.892;-123.962;2024-03-23T09:00:38;100064.88;;;7.42;91.80
51067;BME280;37112;45.892;-123.962;2024-03-23T09:02:51;100063.49;;;7.42;92.12
51067;BME280;37112;45.892;-123.962;2024-03-23T09:05:00;100057.62;;;7.43;92.31
51067;BME280;37112;45.892;-123.962;2024-03-23T09:07:12;100062.89;;;7.43;92.59
51067;BME280;37112;45.892;-123.962;2024-03-23T09:09:23;100063.79;;;7.45;92.97
51067;BME280;37112;45.892;-123.962;2024-03-23T09:11:33;100054.34;;;7.47;92.98
51067;BME280;37112;45.892;-123.962;2024-03-23T09:13:43;100053.04;;;7.48;93.04
51067;BME280;37112;45.892;-123.962;2024-03-23T09:15:53;100050.69;;;7.49;93.02
51067;BME280;37112;45.892;-123.962;2024-03-23T09:18:05;100045.38;;;7.49;92.97
51067;BME280;37112;45.892;-123.962;2024-03-23T09:20:15;100048.80;;;7.45;92.37
51067;BME280;37112;45.892;-123.962;2024-03-23T09:22:25;100051.16;;;7.39;92.07
51067;BME280;37112;45.892;-123.962;2024-03-23T09:24:35;100051.77;;;7.35;92.17
51067;BME280;37112;45.892;-123.962;2024-03-23T09:26:45;100045.61;;;7.32;92.46
51067;BME280;37112;45.892;-123.962;2024-03-23T09:28:54;100042.28;;;7.32;92.78
51067;BME280;37112;45.892;-123.962;2024-03-23T09:31:07;100036.90;;;7.33;93.10
51067;BME280;37112;45.892;-123.962;2024-03-23T09:33:18;100037.05;;;7.33;93.19
51067;BME280;37112;45.892;-123.962;2024-03-23T09:35:28;100037.30;;;7.35;93.46
51067;BME280;37112;45.892;-123.962;2024-03-23T09:37:38;100036.44;;;7.37;93.66
51067;BME280;37112;45.892;-123.962;2024-03-23T09:39:48;100041.77;;;7.40;94.07
51067;BME280;37112;45.892;-123.962;2024-03-23T09:42:00;100032.61;;;7.44;94.56
51067;BME280;37112;45.892;-123.962;2024-03-23T09:44:10;100026.84;;;7.49;95.12
51067;BME280;37112;45.892;-123.962;2024-03-23T09:46:20;100026.18;;;7.57;95.72
51067;BME280;37112;45.892;-123.962;2024-03-23T09:48:31;100029.02;;;7.64;95.95
51067;BME280;37112;45.892;-123.962;2024-03-23T09:50:41;100022.75;;;7.70;96.15
51067;BME280;37112;45.892;-123.962;2024-03-23T09:52:52;100026.94;;;7.76;96.30
51067;BME280;37112;45.892;-123.962;2024-03-23T09:55:02;100020.01;;;7.80;96.35
51067;BME280;37112;45.892;-123.962;2024-03-23T09:57:13;100016.61;;;7.83;96.41
51067;BME280;37112;45.892;-123.962;2024-03-23T09:59:23;100015.17;;;7.86;96.33
51067;BME280;37112;45.892;-123.962;2024-03-23T10:01:34;100012.44;;;7.88;96.12
51067;BME280;37112;45.892;-123.962;2024-03-23T10:03:47;100013.07;;;7.89;96.04
51067;BME280;37112;45.892;-123.962;2024-03-23T10:06:06;100001.35;;;7.89;95.93
51067;BME280;37112;45.892;-123.962;2024-03-23T10:08:22;99995.57;;;7.89;95.67
51067;BME280;37112;45.892;-123.962;2024-03-23T10:10:32;99992.91;;;7.86;95.56
51067;BME280;37112;45.892;-123.962;2024-03-23T10:12:46;99989.59;;;7.82;95.28
51067;BME280;37112;45.892;-123.962;2024-03-23T10:14:58;99985.72;;;7.80;95.33
51067;BME280;37112;45.892;-123.962;2024-03-23T10:17:18;99979.95;;;7.79;95.46
51067;BME280;37112;45.892;-123.962;2024-03-23T10:19:34;99977.50;;;7.79;95.53
51067;BME280;37112;45.892;-123.962;2024-03-23T10:21:54;99970.97;;;7.78;95.47
51067;BME280;37112;45.892;-123.962;2024-03-23T10:24:10;99968.91;;;7.78;95.26
51067;BME280;37112;45.892;-123.962;2024-03-23T10:26:22;99962.98;;;7.76;95.29
51067;BME280;37112;45.892;-123.962;2024-03-23T10:28:33;99964.89;;;7.77;95.72
51067;BME280;37112;45.892;-123.962;2024-03-23T10:30:43;99966.10;;;7.77;95.74
51067;BME280;37112;45.892;-123.962;2024-03-23T10:32:54;99963.73;;;7.79;95.87
51067;BME280;37112;45.892;-123.962;2024-03-23T10:35:21;99960.36;;;7.81;95.94
51067;BME280;37112;45.892;-123.962;2024-03-23T10:37:31;99960.85;;;7.84;96.34
51067;BME280;37112;45.892;-123.962;2024-03-23T10:39:42;99961.50;;;7.88;96.56
51067;BME280;37112;45.892;-123.962;2024-03-23T10:41:55;99960.34;;;7.92;96.83
51067;BME280;37112;45.892;-123.962;2024-03-23T10:44:06;99955.85;;;7.95;97.16
51067;BME280;37112;45.892;-123.962;2024-03-23T10:46:17;99954.98;;;8.00;97.21
51067;BME280;37112;45.892;-123.962;2024-03-23T10:48:27;99956.86;;;8.04;97.46
51067;BME280;37112;45.892;-123.962;2024-03-23T10:50:37;99956.05;;;8.07;97.38
51067;BME280;37112;45.892;-123.962;2024-03-23T10:52:48;99951.70;;;8.09;97.37
51067;BME280;37112;45.892;-123.962;2024-03-23T10:54:59;99951.24;;;8.11;97.24
51067;BME280;37112;45.892;-123.962;2024-03-23T10:57:13;99946.43;;;8.12;97.03
51067;BME280;37112;45.892;-123.962;2024-03-23T10:59:25;99943.49;;;8.13;97.14
51067;BME280;37112;45.892;-123.962;2024-03-23T11:01:35;99941.48;;;8.14;97.11
51067;BME280;37112;45.892;-123.962;2024-03-23T11:03:48;99936.77;;;8.16;96.99
51067;BME280;37112;45.892;-123.962;2024-03-23T11:05:58;99936.63;;;8.18;97.14
51067;BME280;37112;45.892;-123.962;2024-03-23T11:08:09;99930.98;;;8.20;97.20
51067;BME280;37112;45.892;-123.962;2024-03-23T11:10:28;99931.08;;;8.21;97.19
51067;BME280;37112;45.892;-123.962;2024-03-23T11:12:39;99931.64;;;8.23;97.25
51067;BME280;37112;45.892;-123.962;2024-03-23T11:14:50;99927.08;;;8.25;97.33
51067;BME280;37112;45.892;-123.962;2024-03-23T11:17:12;99929.14;;;8.28;97.39
51067;BME280;37112;45.892;-123.962;2024-03-23T11:19:40;99932.11;;;8.31;97.49
51067;BME280;37112;45.892;-123.962;2024-03-23T11:21:56;99934.27;;;8.33;97.37
51067;BME280;37112;45.892;-123.962;2024-03-23T11:24:22;99931.89;;;8.35;97.40
51067;BME280;37112;45.892;-123.962;2024-03-23T11:26:31;99929.87;;;8.38;97.41
51067;BME280;37112;45.892;-123.962;2024-03-23T11:28:41;99930.29;;;8.40;97.50
51067;BME280;37112;45.892;-123.962;2024-03-23T11:30:52;99928.08;;;8.42;97.33
51067;BME280;37112;45.892;-123.962;2024-03-23T11:33:01;99927.53;;;8.44;97.29
51067;BME280;37112;45.892;-123.962;2024-03-23T11:35:26;99922.01;;;8.45;97.06
51067;BME280;37112;45.892;-123.962;2024-03-23T11:37:36;99924.32;;;8.45;96.93
51067;BME280;37112;45.892;-123.962;2024-03-23T11:39:46;99929.41;;;8.45;97.01
51067;BME280;37112;45.892;-123.962;2024-03-23T11:41:58;99931.80;;;8.46;97.03
51067;BME280;37112;45.892;-123.962;2024-03-23T11:44:20;99927.54;;;8.46;96.93
51067;BME280;37112;45.892;-123.962;2024-03-23T11:46:31;99923.10;;;8.47;96.78
51067;BME280;37112;45.892;-123.962;2024-03-23T11:48:40;99926.84;;;8.46;96.90
51067;BME280;37112;45.892;-123.962;2024-03-23T11:50:55;99924.88;;;8.46;96.84
51067;BME280;37112;45.892;-123.962;2024-03-23T11:53:12;99924.94;;;8.46;96.73
51067;BME280;37112;45.892;-123.962;2024-03-23T11:55:22;99928.05;;;8.47;96.97
51067;BME280;37112;45.892;-123.962;2024-03-23T11:57:32;99929.20;;;8.48;97.01